createdAt,value
2023-02-08T00:01:29.312Z,7.60
2023-02-08T00:03:58.950Z,7.77
2023-02-08T00:06:26.979Z,7.37
2023-02-08T00:08:57.163Z,6.13
2023-02-08T00:11:25.602Z,8.13
2023-02-08T00:13:54.117Z,7.00
2023-02-08T00:16:22.445Z,8.17
2023-02-08T00:18:50.459Z,6.60
2023-02-08T00:21:19.483Z,7.50
2023-02-08T00:23:49.516Z,6.63
2023-02-08T00:26:18.174Z,9.47
2023-02-08T00:28:46.543Z,8.27
2023-02-08T00:31:14.762Z,7.53
2023-02-08T00:33:43.187Z,8.90
2023-02-08T00:36:11.818Z,7.53
2023-02-08T00:38:40.646Z,8.37
2023-02-08T00:41:11.632Z,9.17
2023-02-08T00:43:40.103Z,9.17
2023-02-08T00:46:10.973Z,8.90
2023-02-08T00:48:39.135Z,8.73
2023-02-08T00:51:13.854Z,8.07
2023-02-08T00:53:44.428Z,8.43
2023-02-08T00:56:18.680Z,7.30
2023-02-08T00:58:50.059Z,9.00
2023-02-08T01:01:18.763Z,11.80
2023-02-08T01:03:48.242Z,7.83
2023-02-08T01:06:18.419Z,8.40
2023-02-08T01:08:47.688Z,8.33
2023-02-08T01:11:30.942Z,6.97
2023-02-08T01:13:59.937Z,9.10
2023-02-08T01:16:32.737Z,9.30
2023-02-08T01:19:02.735Z,9.67
2023-02-08T01:21:35.165Z,9.10
2023-02-08T01:24:05.334Z,8.50
2023-02-08T01:26:33.712Z,6.20
2023-02-08T01:29:02.302Z,9.07
2023-02-08T01:31:37.408Z,9.77
2023-02-08T01:34:09.419Z,9.07
2023-02-08T01:36:39.711Z,9.63
2023-02-08T01:39:08.631Z,9.67
2023-02-08T01:41:39.935Z,11.73
2023-02-08T01:44:14.128Z,8.33
2023-02-08T01:46:45.946Z,10.23
2023-02-08T01:49:20.125Z,10.03
2023-02-08T01:51:59.958Z,10.67
2023-02-08T01:54:31.583Z,10.20
2023-02-08T01:57:00.537Z,9.60
2023-02-08T01:59:45.571Z,10.40
2023-02-08T02:02:17.381Z,11.40
2023-02-08T02:04:45.775Z,9.53
2023-02-08T02:07:14.273Z,10.67
2023-02-08T02:09:50.562Z,9.47
2023-02-08T02:12:18.768Z,10.17
2023-02-08T02:14:47.350Z,8.67
2023-02-08T02:17:18.281Z,10.03
2023-02-08T02:19:57.695Z,14.60
2023-02-08T02:22:31.600Z,11.07
2023-02-08T02:25:18.806Z,12.13
2023-02-08T02:28:26.097Z,12.40
2023-02-08T02:31:20.815Z,8.40
2023-02-08T02:34:03.843Z,11.17
2023-02-08T02:36:52.575Z,11.10
2023-02-08T02:39:52.164Z,11.67
2023-02-08T02:42:41.635Z,8.10
2023-02-08T02:45:09.911Z,11.47
2023-02-08T02:47:49.832Z,12.30
2023-02-08T02:50:27.816Z,13.10
2023-02-08T02:53:03.300Z,13.57
2023-02-08T02:55:35.754Z,12.47
2023-02-08T02:58:06.206Z,11.83
2023-02-08T03:00:35.467Z,7.70
2023-02-08T03:03:04.731Z,13.37
2023-02-08T03:05:35.934Z,11.97
2023-02-08T03:08:49.286Z,12.17
2023-02-08T03:11:35.368Z,12.77
2023-02-08T03:14:35.611Z,13.43
2023-02-08T03:17:18.485Z,11.63
2023-02-08T03:19:57.253Z,14.03
2023-02-08T03:22:46.561Z,10.90
2023-02-08T03:25:21.880Z,12.67
2023-02-08T03:28:11.647Z,11.97
2023-02-08T03:30:46.283Z,11.90
2023-02-08T03:33:21.056Z,10.63
2023-02-08T03:35:52.453Z,13.30
2023-02-08T03:38:25.630Z,14.87
2023-02-08T03:40:55.453Z,13.90
2023-02-08T03:43:34.335Z,14.20
2023-02-08T03:46:20.567Z,11.33
2023-02-08T03:48:54.619Z,13.57
2023-02-08T03:51:25.617Z,12.63
2023-02-08T03:53:55.074Z,13.27
2023-02-08T03:56:36.306Z,12.30
2023-02-08T03:59:08.226Z,13.07
2023-02-08T04:01:46.377Z,13.00
2023-02-08T04:04:16.183Z,13.10
2023-02-08T04:06:44.486Z,15.03
2023-02-08T04:09:12.599Z,15.67
2023-02-08T04:11:44.671Z,11.30
2023-02-08T04:14:13.291Z,11.93
2023-02-08T04:16:41.488Z,16.00
2023-02-08T04:19:10.409Z,11.30
2023-02-08T04:21:39.186Z,11.63
2023-02-08T04:24:09.488Z,11.10
2023-02-08T04:26:37.651Z,10.70
2023-02-08T04:33:24.327Z,11.50
2023-02-08T04:35:52.883Z,12.13
2023-02-08T04:38:20.802Z,12.73
2023-02-08T04:40:48.824Z,12.03
2023-02-08T04:43:17.155Z,11.23
2023-02-08T04:45:45.463Z,10.93
2023-02-08T04:48:13.769Z,11.03
2023-02-08T04:50:43.434Z,10.00
2023-02-08T04:53:11.682Z,8.03
2023-02-08T04:55:40.284Z,11.17
2023-02-08T04:58:09.440Z,12.77
2023-02-08T05:00:37.665Z,9.83
2023-02-08T05:03:07.223Z,11.23
2023-02-08T05:05:35.959Z,9.37
2023-02-08T05:08:04.372Z,11.30
2023-02-08T05:10:32.804Z,11.90
2023-02-08T05:13:01.534Z,11.07
2023-02-08T05:15:30.007Z,8.90
2023-02-08T05:17:57.933Z,7.60
2023-02-08T05:20:25.840Z,11.07
2023-02-08T05:22:54.133Z,9.83
2023-02-08T05:25:22.075Z,10.10
2023-02-08T05:27:50.224Z,10.87
2023-02-08T05:30:18.348Z,11.47
2023-02-08T05:32:47.243Z,13.50
2023-02-08T05:35:15.557Z,12.70
2023-02-08T05:37:43.652Z,10.03
2023-02-08T05:40:13.513Z,12.33
2023-02-08T05:42:42.735Z,9.80
2023-02-08T05:45:10.725Z,11.37
2023-02-08T05:47:39.255Z,10.90
2023-02-08T05:50:07.826Z,11.70
2023-02-08T05:52:36.224Z,9.60
2023-02-08T05:55:04.602Z,9.87
2023-02-08T05:57:35.874Z,10.80
2023-02-08T06:00:07.395Z,11.90
2023-02-08T06:02:35.517Z,12.67
2023-02-08T06:05:04.075Z,10.13
2023-02-08T06:07:32.559Z,11.03
2023-02-08T06:10:00.786Z,14.67
2023-02-08T06:12:30.881Z,13.60
2023-02-08T06:15:02.424Z,11.83
2023-02-08T06:17:31.342Z,10.87
2023-02-08T06:19:59.485Z,9.07
2023-02-08T06:22:29.870Z,12.50
2023-02-08T06:24:57.993Z,11.97
2023-02-08T06:27:26.687Z,12.67
2023-02-08T06:29:55.267Z,14.50
2023-02-08T06:32:23.323Z,10.37
2023-02-08T06:34:51.725Z,13.37
2023-02-08T06:37:19.962Z,9.67
2023-02-08T06:39:48.275Z,11.40
2023-02-08T06:42:16.555Z,11.83
2023-02-08T06:44:54.444Z,10.13
2023-02-08T06:47:25.443Z,10.63
2023-02-08T06:49:55.810Z,9.67
2023-02-08T06:52:23.633Z,11.40
2023-02-08T06:54:52.170Z,9.50
2023-02-08T06:57:20.510Z,9.33
2023-02-08T06:59:49.350Z,9.10
2023-02-08T07:02:20.724Z,12.30
2023-02-08T07:04:49.232Z,10.00
2023-02-08T07:07:18.173Z,7.80
2023-02-08T07:09:46.508Z,9.67
2023-02-08T07:12:14.603Z,9.60
2023-02-08T07:14:43.937Z,9.60
2023-02-08T07:17:14.896Z,10.93
2023-02-08T07:19:43.119Z,10.93
2023-02-08T07:22:11.613Z,11.43
2023-02-08T07:24:41.600Z,8.87
2023-02-08T07:27:15.175Z,9.07
2023-02-08T07:29:45.455Z,11.53
2023-02-08T07:32:14.092Z,11.10
2023-02-08T07:34:42.700Z,11.03
2023-02-08T07:37:11.055Z,11.60
2023-02-08T07:39:40.339Z,8.17
2023-02-08T07:42:11.581Z,9.43
2023-02-08T07:44:40.259Z,10.67
2023-02-08T07:47:09.642Z,8.93
2023-02-08T07:49:38.098Z,10.10
2023-02-08T08:04:38.279Z,12.37
2023-02-08T08:07:07.851Z,10.30
2023-02-08T08:09:38.584Z,8.60
2023-02-08T08:12:09.970Z,9.90
2023-02-08T08:14:39.624Z,9.90
2023-02-08T08:17:08.714Z,9.40
2023-02-08T08:19:37.572Z,10.17
2023-02-08T08:22:09.102Z,9.90
2023-02-08T08:24:38.277Z,7.47
2023-02-08T08:27:09.148Z,8.80
2023-02-08T08:29:39.978Z,9.97
2023-02-08T08:32:10.300Z,9.97
2023-02-08T08:34:42.306Z,8.83
2023-02-08T08:37:11.372Z,9.47
2023-02-08T08:39:39.705Z,9.17
2023-02-08T08:42:07.946Z,10.37
2023-02-08T08:44:38.437Z,10.10
2023-02-08T08:47:06.762Z,7.77
2023-02-08T08:49:34.651Z,9.47
2023-02-08T08:52:02.648Z,8.30
2023-02-08T08:54:30.763Z,6.80
2023-02-08T08:56:59.026Z,10.50
2023-02-08T08:59:27.937Z,9.13
2023-02-08T09:01:57.195Z,10.40
2023-02-08T09:04:56.690Z,7.63
2023-02-08T09:07:16.129Z,8.90
2023-02-08T09:09:48.423Z,9.70
2023-02-08T09:12:19.217Z,11.17
2023-02-08T09:14:47.403Z,7.03
2023-02-08T09:17:15.535Z,6.73
2023-02-08T09:19:44.221Z,6.00
2023-02-08T09:22:13.635Z,7.27
2023-02-08T09:24:42.524Z,8.20
2023-02-08T09:27:14.558Z,8.57
2023-02-08T09:29:42.843Z,8.27
2023-02-08T09:32:11.292Z,8.70
2023-02-08T09:34:39.887Z,7.10
2023-02-08T09:37:08.453Z,8.20
2023-02-08T09:39:37.143Z,6.47
2023-02-08T09:42:29.358Z,6.20
2023-02-08T09:45:10.320Z,8.17
2023-02-08T09:47:44.463Z,6.87
2023-02-08T09:50:21.920Z,8.00
2023-02-08T09:53:13.848Z,6.37
2023-02-08T09:55:52.090Z,6.93
2023-02-08T09:58:35.615Z,6.80
2023-02-08T10:01:08.011Z,7.27
2023-02-08T10:03:43.476Z,10.10
2023-02-08T10:06:17.859Z,6.63
2023-02-08T10:08:52.343Z,7.97
2023-02-08T10:11:35.892Z,7.60
2023-02-08T10:14:11.765Z,5.87
2023-02-08T10:16:53.677Z,7.13
2023-02-08T10:19:38.150Z,6.67
2023-02-08T10:22:25.141Z,6.40
2023-02-08T10:25:12.378Z,5.47
2023-02-08T10:28:08.669Z,6.13
2023-02-08T10:30:50.909Z,4.33
2023-02-08T10:33:43.331Z,6.00
2023-02-08T10:36:24.601Z,7.07
2023-02-08T10:38:55.883Z,6.47
2023-02-08T10:41:28.990Z,7.17
2023-02-08T10:44:05.429Z,6.03
2023-02-08T10:47:05.652Z,6.70
2023-02-08T10:50:02.934Z,6.83
2023-02-08T10:52:33.684Z,6.30
2023-02-08T10:55:08.260Z,5.83
2023-02-08T10:57:36.677Z,6.63
2023-02-08T11:00:08.134Z,7.43
2023-02-08T11:02:43.001Z,7.33
2023-02-08T11:05:13.000Z,7.13
2023-02-08T11:07:42.148Z,7.90
2023-02-08T11:10:21.642Z,6.37
2023-02-08T11:13:06.205Z,6.33
2023-02-08T11:15:57.660Z,9.13
2023-02-08T11:18:31.411Z,8.67
2023-02-08T11:21:02.876Z,8.53
2023-02-08T11:23:33.193Z,7.90
2023-02-08T11:26:25.247Z,8.00
2023-02-08T11:29:15.986Z,7.83
2023-02-08T11:31:58.864Z,9.40
2023-02-08T11:34:39.812Z,7.10
2023-02-08T11:37:26.936Z,9.17
2023-02-08T11:39:59.279Z,7.23
2023-02-08T11:42:37.502Z,6.20
2023-02-08T11:45:06.660Z,7.47
2023-02-08T11:47:37.781Z,8.70
2023-02-08T11:50:08.281Z,8.03
2023-02-08T11:52:43.718Z,7.90
2023-02-08T11:55:32.996Z,8.67
2023-02-08T11:58:13.519Z,8.85
2023-02-08T12:01:02.220Z,7.87
2023-02-08T12:03:51.128Z,8.37
2023-02-08T12:06:40.759Z,7.13
2023-02-08T12:09:54.549Z,9.03
2023-02-08T12:12:48.538Z,9.73
2023-02-08T12:15:58.754Z,7.03
2023-02-08T12:18:45.056Z,6.37
2023-02-08T12:21:26.369Z,6.67
2023-02-08T12:24:05.925Z,7.23
2023-02-08T12:26:44.118Z,6.63
2023-02-08T12:29:12.689Z,6.10
2023-02-08T12:31:40.754Z,7.17
2023-02-08T12:34:25.163Z,6.73
2023-02-08T12:37:26.862Z,6.33
2023-02-08T12:40:50.860Z,7.83
2023-02-08T12:43:33.218Z,7.63
2023-02-08T12:46:04.571Z,6.33
2023-02-08T12:49:11.565Z,7.10
2023-02-08T12:51:56.969Z,7.13
2023-02-08T12:54:38.739Z,7.30
2023-02-08T12:57:07.736Z,6.60
2023-02-08T12:59:54.934Z,7.10
2023-02-08T13:02:30.664Z,5.70
2023-02-08T13:05:01.810Z,6.47
2023-02-08T13:07:41.135Z,6.03
2023-02-08T13:10:31.606Z,7.53
2023-02-08T13:13:08.998Z,7.17
2023-02-08T13:15:46.313Z,7.03
2023-02-08T13:18:21.782Z,6.73
2023-02-08T13:21:03.500Z,6.90
2023-02-08T13:23:57.810Z,6.83
2023-02-08T13:26:32.408Z,7.07
2023-02-08T13:29:05.097Z,6.20
2023-02-08T13:31:49.230Z,3.80
2023-02-08T13:34:37.238Z,6.17
2023-02-08T13:37:24.820Z,5.60
2023-02-08T13:40:04.505Z,5.80
2023-02-08T13:42:45.565Z,5.47
2023-02-08T13:45:26.131Z,4.97
2023-02-08T13:48:20.818Z,6.30
2023-02-08T13:50:53.891Z,6.70
2023-02-08T13:53:39.990Z,5.13
2023-02-08T13:56:13.176Z,7.33
2023-02-08T13:58:50.872Z,7.70
2023-02-08T14:01:28.270Z,7.50
2023-02-08T14:04:15.809Z,6.93
2023-02-08T14:06:47.378Z,5.93
2023-02-08T14:09:38.218Z,6.37
2023-02-08T14:12:14.689Z,6.57
2023-02-08T14:14:42.623Z,7.10
2023-02-08T14:17:20.887Z,7.40
2023-02-08T14:19:58.571Z,8.20
2023-02-08T14:22:36.185Z,6.23
2023-02-08T14:25:18.268Z,4.57
2023-02-08T14:28:03.503Z,6.10
2023-02-08T14:30:39.308Z,5.87
2023-02-08T14:33:13.069Z,5.80
2023-02-08T14:35:44.053Z,6.77
2023-02-08T14:38:24.298Z,4.77
2023-02-08T14:41:00.646Z,6.17
2023-02-08T14:43:49.790Z,5.37
2023-02-08T14:46:39.508Z,6.27
2023-02-08T14:49:14.655Z,7.10
2023-02-08T14:52:04.843Z,6.10
2023-02-08T14:54:49.175Z,7.43
2023-02-08T14:57:24.494Z,6.50
2023-02-08T14:59:57.244Z,6.30
2023-02-08T15:02:31.820Z,7.23
2023-02-08T15:05:09.971Z,7.47
2023-02-08T15:08:07.640Z,7.27
2023-02-08T15:10:42.490Z,6.57
2023-02-08T15:13:31.080Z,7.40
2023-02-08T15:16:00.656Z,7.23
2023-02-08T15:18:31.936Z,7.10
2023-02-08T15:21:06.968Z,7.00
2023-02-08T15:23:36.281Z,7.73
2023-02-08T15:26:22.545Z,8.13
2023-02-08T15:28:52.083Z,8.23
2023-02-08T15:31:32.393Z,7.87
2023-02-08T15:34:02.001Z,10.52
2023-02-08T15:36:33.241Z,7.47
2023-02-08T15:39:27.291Z,8.60
2023-02-08T15:41:59.971Z,7.37
2023-02-08T15:44:30.832Z,7.93
2023-02-08T15:47:05.016Z,7.83
2023-02-08T15:49:38.574Z,7.27
2023-02-08T15:52:07.969Z,7.23
2023-02-08T15:54:35.927Z,5.97
2023-02-08T15:57:10.256Z,7.20
2023-02-08T15:59:40.481Z,5.60
2023-02-08T16:02:31.507Z,6.77
2023-02-08T16:05:01.110Z,7.80
2023-02-08T16:07:39.056Z,7.70
2023-02-08T16:10:10.874Z,8.73
2023-02-08T16:12:39.372Z,7.50
2023-02-08T16:15:53.691Z,7.63
2023-02-08T16:18:41.033Z,10.27
2023-02-08T16:21:20.319Z,9.03
2023-02-08T16:24:16.324Z,8.83
2023-02-08T16:26:50.112Z,9.20
2023-02-08T16:29:22.032Z,9.07
2023-02-08T16:32:01.362Z,10.03
2023-02-08T16:34:36.619Z,9.57
2023-02-08T16:37:07.672Z,9.73
2023-02-08T16:39:36.610Z,9.33
2023-02-08T16:42:16.307Z,9.60
2023-02-08T16:45:15.182Z,10.13
2023-02-08T16:47:49.816Z,10.57
2023-02-08T16:50:28.339Z,9.93
2023-02-08T17:04:03.359Z,11.97
2023-02-08T17:06:36.706Z,12.40
2023-02-08T17:09:06.566Z,12.67
2023-02-08T17:11:35.401Z,13.00
2023-02-08T17:14:05.488Z,13.33
2023-02-08T17:16:35.602Z,14.07
2023-02-08T17:19:04.849Z,15.73
2023-02-08T17:21:33.429Z,15.23
2023-02-08T17:24:02.432Z,12.73
2023-02-08T17:26:40.745Z,14.80
2023-02-08T17:29:09.294Z,12.30
2023-02-08T17:31:45.294Z,14.30
2023-02-08T17:34:14.105Z,14.83
2023-02-08T17:36:43.050Z,15.47
2023-02-08T17:39:12.421Z,15.67
2023-02-08T17:41:40.854Z,13.87
2023-02-08T17:44:09.108Z,16.07
2023-02-08T17:46:38.150Z,15.60
2023-02-08T17:49:06.386Z,14.27
2023-02-08T17:51:36.130Z,12.60
2023-02-08T17:54:05.578Z,14.73
2023-02-08T17:56:36.345Z,15.53
2023-02-08T17:59:05.869Z,13.80
2023-02-08T18:01:35.449Z,14.90
2023-02-08T18:04:03.880Z,13.00
2023-02-08T18:06:32.601Z,14.57
2023-02-08T18:09:01.759Z,11.77
2023-02-08T18:11:31.633Z,13.03
2023-02-08T18:14:00.321Z,14.80
2023-02-08T18:16:31.195Z,15.17
2023-02-08T18:19:01.569Z,13.57
2023-02-08T18:21:34.097Z,11.40
2023-02-08T18:24:04.673Z,14.43
2023-02-08T18:26:34.832Z,15.77
2023-02-08T18:29:04.119Z,14.07
2023-02-08T18:31:33.166Z,14.73
2023-02-08T18:34:02.159Z,13.63
2023-02-08T18:36:31.063Z,15.20
2023-02-08T18:39:00.178Z,15.90
2023-02-08T18:41:30.378Z,16.67
2023-02-08T18:43:59.477Z,17.83
2023-02-08T18:46:30.950Z,15.10
2023-02-08T18:49:01.021Z,16.17
2023-02-08T18:51:31.509Z,16.10
2023-02-08T18:54:00.425Z,17.23
2023-02-08T18:56:29.697Z,18.80
2023-02-08T18:59:01.107Z,18.60
2023-02-08T19:01:29.919Z,21.83
2023-02-08T19:04:00.127Z,21.83
2023-02-08T19:06:31.898Z,21.17
2023-02-08T19:09:02.045Z,21.87
2023-02-08T19:11:34.588Z,18.10
2023-02-08T19:14:05.400Z,18.00
2023-02-08T19:16:36.386Z,18.53
2023-02-08T19:19:06.289Z,18.00
2023-02-08T19:21:35.051Z,19.33
2023-02-08T19:24:28.429Z,18.93
2023-02-08T19:26:57.152Z,18.13
2023-02-08T19:29:25.136Z,19.83
2023-02-08T19:31:53.358Z,18.70
2023-02-08T19:34:24.311Z,18.43
2023-02-08T19:36:54.652Z,18.10
2023-02-08T19:39:25.391Z,14.93
2023-02-08T19:41:55.314Z,13.70
2023-02-08T19:44:23.754Z,14.93
2023-02-08T19:46:54.081Z,16.93
2023-02-08T19:49:23.515Z,17.17
2023-02-08T19:51:53.273Z,15.43
2023-02-08T19:54:25.032Z,14.77
2023-02-08T19:56:55.128Z,14.60
2023-02-08T19:59:26.430Z,13.93
2023-02-08T20:01:57.340Z,14.43
2023-02-08T20:04:25.981Z,16.27
2023-02-08T20:06:55.611Z,13.73
2023-02-08T20:09:24.506Z,14.80
2023-02-08T20:11:57.474Z,15.10
2023-02-08T20:14:33.409Z,15.53
2023-02-08T20:17:02.482Z,14.70
2023-02-08T20:19:31.814Z,14.60
2023-02-08T20:21:59.995Z,15.07
2023-02-08T20:24:32.075Z,15.07
2023-02-08T20:27:00.449Z,15.33
2023-02-08T20:29:30.921Z,15.63
2023-02-08T20:31:59.872Z,15.20
2023-02-08T20:34:29.031Z,13.83
2023-02-08T20:37:12.660Z,15.77
2023-02-08T20:39:43.810Z,16.53
2023-02-08T20:42:12.671Z,15.73
2023-02-08T20:44:44.288Z,14.87
2023-02-08T20:47:19.542Z,16.47
2023-02-08T20:49:51.161Z,15.50
2023-02-08T20:52:19.204Z,15.67
2023-02-08T20:54:48.282Z,13.40
2023-02-08T20:57:18.687Z,13.93
2023-02-08T20:59:51.138Z,15.27
2023-02-08T21:02:23.293Z,13.20
2023-02-08T21:04:54.619Z,12.87
2023-02-08T21:07:22.758Z,15.20
2023-02-08T21:09:51.219Z,14.30
2023-02-08T21:12:21.164Z,14.83
2023-02-08T21:14:50.139Z,15.10
2023-02-08T21:17:18.836Z,15.73
2023-02-08T21:19:48.005Z,15.17
2023-02-08T21:22:17.448Z,15.87
2023-02-08T21:24:45.675Z,16.37
2023-02-08T21:27:13.862Z,15.03
2023-02-08T21:29:42.534Z,16.27
2023-02-08T21:32:10.967Z,15.73
2023-02-08T21:34:40.683Z,17.70
2023-02-08T21:37:09.321Z,16.03
2023-02-08T21:39:38.559Z,15.60
2023-02-08T21:42:06.675Z,16.27
2023-02-08T21:44:36.178Z,16.40
2023-02-08T21:47:04.278Z,16.17
2023-02-08T21:49:50.952Z,17.20
2023-02-08T21:52:37.822Z,15.40
2023-02-08T21:55:06.750Z,15.53
2023-02-08T21:57:40.359Z,15.60
2023-02-08T22:00:10.784Z,14.73
2023-02-08T22:02:39.832Z,14.87
2023-02-08T22:05:08.745Z,14.23
2023-02-08T22:07:48.608Z,15.90
2023-02-08T22:10:20.250Z,18.93
2023-02-08T22:12:49.457Z,18.43
2023-02-08T22:15:23.091Z,16.73
2023-02-08T22:18:00.022Z,15.67
2023-02-08T22:21:02.094Z,19.07
2023-02-08T22:23:31.048Z,19.73
2023-02-08T22:25:59.615Z,17.73
2023-02-08T22:31:15.755Z,16.70
2023-02-08T22:33:45.185Z,18.13
2023-02-08T22:36:14.112Z,18.63
2023-02-08T22:38:43.216Z,18.80
2023-02-08T22:41:16.143Z,17.07
2023-02-08T22:43:44.941Z,16.73
2023-02-08T22:46:13.922Z,17.50
2023-02-08T22:48:42.928Z,17.10
2023-02-08T22:51:17.385Z,16.00
2023-02-08T22:53:45.660Z,18.77
2023-02-08T22:56:15.346Z,11.33
2023-02-08T22:58:44.019Z,16.93
2023-02-08T23:01:14.795Z,14.90
2023-02-08T23:03:43.908Z,15.93
2023-02-08T23:06:16.619Z,16.13
2023-02-08T23:08:45.478Z,15.27
2023-02-08T23:11:14.874Z,17.13
2023-02-08T23:13:42.772Z,15.70
2023-02-08T23:16:15.984Z,17.43
2023-02-08T23:18:45.507Z,13.83
2023-02-08T23:21:17.889Z,16.60
2023-02-08T23:23:48.421Z,17.53
2023-02-08T23:26:19.298Z,16.30
2023-02-08T23:28:47.634Z,17.67
2023-02-08T23:31:16.135Z,17.90
2023-02-08T23:33:44.458Z,18.10
2023-02-08T23:36:17.968Z,16.67
2023-02-08T23:38:46.594Z,14.70
2023-02-08T23:41:18.810Z,18.87
2023-02-08T23:43:47.335Z,15.13
2023-02-08T23:46:21.639Z,15.03
2023-02-08T23:48:50.644Z,17.10
2023-02-08T23:51:21.222Z,14.23
2023-02-08T23:53:51.274Z,15.07
2023-02-08T23:56:23.145Z,16.17
2023-02-08T23:58:54.721Z,16.33
